createdAt,value
2023-09-01T00:00:13.847Z,21.19
2023-09-01T00:02:42.011Z,21.18
2023-09-01T00:05:12.218Z,21.15
2023-09-01T00:07:40.340Z,21.21
2023-09-01T00:10:09.022Z,21.16
2023-09-01T00:12:37.030Z,21.16
2023-09-01T00:15:05.902Z,21.13
2023-09-01T00:17:33.927Z,21.20
2023-09-01T00:20:01.987Z,21.24
2023-09-01T00:22:31.595Z,21.21
2023-09-01T00:24:59.538Z,21.19
2023-09-01T00:27:27.679Z,21.05
2023-09-01T00:29:55.747Z,21.12
2023-09-01T00:32:23.718Z,21.00
2023-09-01T00:34:58.091Z,20.93
2023-09-01T00:37:26.609Z,20.96
2023-09-01T00:39:55.926Z,20.81
2023-09-01T00:42:23.881Z,20.81
2023-09-01T00:44:51.842Z,20.79
2023-09-01T00:47:20.332Z,20.76
2023-09-01T00:49:48.411Z,20.84
2023-09-01T00:52:16.573Z,20.67
2023-09-01T00:54:44.896Z,20.69
2023-09-01T00:57:14.197Z,20.63
2023-09-01T00:59:42.973Z,20.64
2023-09-01T01:02:10.987Z,20.59
2023-09-01T01:04:39.085Z,20.59
2023-09-01T01:07:14.477Z,20.58
2023-09-01T01:09:54.919Z,20.59
2023-09-01T01:12:31.280Z,20.50
2023-09-01T01:15:00.698Z,20.58
2023-09-01T01:17:30.430Z,20.40
2023-09-01T01:20:14.957Z,20.45
2023-09-01T01:22:48.509Z,20.38
2023-09-01T01:25:17.876Z,20.39
2023-09-01T01:27:46.010Z,20.40
2023-09-01T01:30:16.298Z,20.31
2023-09-01T01:32:45.088Z,20.48
2023-09-01T01:35:22.533Z,20.30
2023-09-01T01:37:58.192Z,20.29
2023-09-01T01:40:32.121Z,20.33
2023-09-01T01:43:04.060Z,20.33
2023-09-01T01:45:34.018Z,20.31
2023-09-01T01:48:02.301Z,20.22
2023-09-01T01:50:30.312Z,20.11
2023-09-01T01:52:58.436Z,20.14
2023-09-01T01:55:27.862Z,20.16
2023-09-01T01:57:55.874Z,20.18
2023-09-01T02:00:25.089Z,20.23
2023-09-01T02:02:53.677Z,20.23
2023-09-01T02:05:21.951Z,20.18
2023-09-01T02:07:49.983Z,20.17
2023-09-01T02:10:18.754Z,20.08
2023-09-01T02:12:48.784Z,20.08
2023-09-01T02:15:16.840Z,20.02
2023-09-01T02:17:45.836Z,20.03
2023-09-01T02:20:18.528Z,20.02
2023-09-01T02:22:47.338Z,20.01
2023-09-01T02:25:15.581Z,20.02
2023-09-01T02:27:44.351Z,20.07
2023-09-01T02:30:14.883Z,19.97
2023-09-01T02:32:43.130Z,19.83
2023-09-01T02:35:11.162Z,19.87
2023-09-01T02:37:39.301Z,19.80
2023-09-01T02:40:12.315Z,19.69
2023-09-01T02:42:41.326Z,19.61
2023-09-01T02:45:12.340Z,19.69
2023-09-01T02:47:44.509Z,19.58
2023-09-01T02:50:12.700Z,19.58
2023-09-01T02:52:40.797Z,19.61
2023-09-01T02:55:09.639Z,19.63
2023-09-01T02:57:38.012Z,19.57
2023-09-01T03:00:16.239Z,19.61
2023-09-01T03:02:46.615Z,19.59
2023-09-01T03:05:14.941Z,19.57
2023-09-01T03:07:43.606Z,19.44
2023-09-01T03:10:11.864Z,19.40
2023-09-01T03:12:40.738Z,19.35
2023-09-01T03:15:10.321Z,19.35
2023-09-01T03:17:38.557Z,19.24
2023-09-01T03:20:11.847Z,19.34
2023-09-01T03:22:39.963Z,19.36
2023-09-01T03:25:11.309Z,19.35
2023-09-01T03:27:39.725Z,19.43
2023-09-01T03:30:08.682Z,19.34
2023-09-01T03:32:36.791Z,19.35
2023-09-01T03:35:05.171Z,19.30
2023-09-01T03:37:34.868Z,19.24
2023-09-01T03:40:02.828Z,19.28
2023-09-01T03:42:33.128Z,19.23
2023-09-01T03:45:01.160Z,19.24
2023-09-01T03:47:29.116Z,19.27
2023-09-01T03:49:57.138Z,19.18
2023-09-01T03:52:25.135Z,19.13
2023-09-01T03:54:54.559Z,19.15
2023-09-01T03:57:22.535Z,19.22
2023-09-01T03:59:51.477Z,19.16
2023-09-01T04:02:19.422Z,19.10
2023-09-01T04:04:47.382Z,19.21
2023-09-01T04:07:15.360Z,19.13
2023-09-01T04:09:43.342Z,19.18
2023-09-01T04:12:12.868Z,19.14
2023-09-01T04:14:40.822Z,19.13
2023-09-01T04:17:08.810Z,19.12
2023-09-01T04:19:36.769Z,19.13
2023-09-01T04:22:04.781Z,19.19
2023-09-01T04:24:32.819Z,19.31
2023-09-01T04:27:00.836Z,19.27
2023-09-01T04:29:30.421Z,19.25
2023-09-01T04:31:58.466Z,19.32
2023-09-01T04:34:26.453Z,19.34
2023-09-01T04:36:54.437Z,19.33
2023-09-01T04:39:22.421Z,19.48
2023-09-01T04:41:50.441Z,19.49
2023-09-01T04:44:18.404Z,19.49
2023-09-01T04:46:47.766Z,19.42
2023-09-01T04:49:15.731Z,19.45
2023-09-01T04:51:43.687Z,19.54
2023-09-01T04:54:11.764Z,19.37
2023-09-01T04:56:40.856Z,19.38
2023-09-01T04:59:08.849Z,19.37
2023-09-01T05:01:37.093Z,19.41
2023-09-01T05:04:11.205Z,19.47
2023-09-01T05:06:39.343Z,19.55
2023-09-01T05:09:07.772Z,19.60
2023-09-01T05:11:35.789Z,19.58
2023-09-01T05:14:03.941Z,19.62
2023-09-01T05:16:32.010Z,19.67
2023-09-01T05:19:00.082Z,19.73
2023-09-01T05:21:29.472Z,19.82
2023-09-01T05:23:57.459Z,19.71
2023-09-01T05:26:25.498Z,19.69
2023-09-01T05:28:53.437Z,19.69
2023-09-01T05:31:21.474Z,19.82
2023-09-01T05:33:49.492Z,19.85
2023-09-01T05:36:17.459Z,19.87
2023-09-01T05:38:46.832Z,19.85
2023-09-01T05:41:15.424Z,19.84
2023-09-01T05:43:43.387Z,19.86
2023-09-01T05:46:11.444Z,19.87
2023-09-01T05:48:39.504Z,19.77
2023-09-01T05:51:07.468Z,19.90
2023-09-01T05:53:35.597Z,19.83
2023-09-01T05:56:05.231Z,19.82
2023-09-01T05:58:34.833Z,19.78
2023-09-01T06:01:02.752Z,19.69
2023-09-01T06:03:30.966Z,19.72
2023-09-01T06:05:58.970Z,19.82
2023-09-01T06:08:26.998Z,19.88
2023-09-01T06:11:04.891Z,19.89
2023-09-01T06:13:33.430Z,20.01
2023-09-01T06:16:01.421Z,19.98
2023-09-01T06:18:29.484Z,19.97
2023-09-01T06:20:57.547Z,19.98
2023-09-01T06:23:25.499Z,19.91
2023-09-01T06:25:53.479Z,19.92
2023-09-01T06:28:22.946Z,19.99
2023-09-01T06:30:51.136Z,20.03
2023-09-01T06:33:19.649Z,19.96
2023-09-01T06:35:47.746Z,20.12
2023-09-01T06:38:16.170Z,20.03
2023-09-01T06:40:45.585Z,20.10
2023-09-01T06:43:13.588Z,20.20
2023-09-01T06:45:43.012Z,20.17
2023-09-01T06:48:11.082Z,20.17
2023-09-01T06:50:39.791Z,20.29
2023-09-01T06:53:08.015Z,20.33
2023-09-01T06:55:36.152Z,20.28
2023-09-01T06:58:04.462Z,20.35
2023-09-01T07:00:32.478Z,20.29
2023-09-01T07:03:01.967Z,20.38
2023-09-01T07:05:29.978Z,20.39
2023-09-01T07:07:57.964Z,20.41
2023-09-01T07:10:26.052Z,20.43
2023-09-01T07:12:54.086Z,20.56
2023-09-01T07:15:22.223Z,20.56
2023-09-01T07:17:50.281Z,20.70
2023-09-01T07:20:19.737Z,20.64
2023-09-01T07:22:47.737Z,20.61
2023-09-01T07:25:17.112Z,20.64
2023-09-01T07:27:45.227Z,20.66
2023-09-01T07:30:15.046Z,20.71
2023-09-01T07:32:43.194Z,20.73
2023-09-01T07:35:11.147Z,20.77
2023-09-01T07:37:40.533Z,20.90
2023-09-01T07:40:09.515Z,20.94
2023-09-01T07:42:37.804Z,20.97
2023-09-01T07:45:07.127Z,20.97
2023-09-01T07:47:35.461Z,21.02
2023-09-01T07:50:03.661Z,21.02
2023-09-01T07:52:31.744Z,21.05
2023-09-01T07:55:01.035Z,21.07
2023-09-01T07:57:29.061Z,21.11
2023-09-01T07:59:57.013Z,21.19
2023-09-01T08:02:25.000Z,21.23
2023-09-01T08:04:52.938Z,21.28
2023-09-01T08:07:21.405Z,21.30
2023-09-01T08:09:49.431Z,21.38
2023-09-01T08:12:18.783Z,21.37
2023-09-01T08:14:46.776Z,21.38
2023-09-01T08:17:14.811Z,21.42
2023-09-01T08:19:42.874Z,21.44
2023-09-01T08:22:10.880Z,21.51
2023-09-01T08:24:38.842Z,21.55
2023-09-01T08:27:07.078Z,21.58
2023-09-01T08:29:36.555Z,21.67
2023-09-01T08:32:04.757Z,21.80
2023-09-01T08:34:32.721Z,21.81
2023-09-01T08:37:00.876Z,21.84
2023-09-01T08:39:28.940Z,21.85
2023-09-01T08:41:57.258Z,21.90
2023-09-01T08:44:29.044Z,21.92
2023-09-01T08:47:00.255Z,21.92
2023-09-01T08:49:29.434Z,21.96
2023-09-01T08:51:58.406Z,21.96
2023-09-01T08:54:28.047Z,21.94
2023-09-01T08:56:55.994Z,21.96
2023-09-01T08:59:25.469Z,22.00
2023-09-01T09:01:53.538Z,22.01
2023-09-01T09:04:22.918Z,22.04
2023-09-01T09:06:50.965Z,22.04
2023-09-01T09:09:20.322Z,22.00
2023-09-01T09:11:58.170Z,22.00
2023-09-01T09:14:28.421Z,22.07
2023-09-01T09:16:58.252Z,22.09
2023-09-01T09:19:28.727Z,22.10
2023-09-01T09:22:07.327Z,22.10
2023-09-01T09:24:37.455Z,22.15
2023-09-01T09:27:07.809Z,22.18
2023-09-01T09:29:41.608Z,22.25
2023-09-01T09:32:25.018Z,22.19
2023-09-01T09:35:08.498Z,22.18
2023-09-01T09:37:37.016Z,22.23
2023-09-01T09:40:16.706Z,22.30
2023-09-01T09:42:45.884Z,22.27
2023-09-01T09:45:27.954Z,22.33
2023-09-01T09:47:57.943Z,22.33
2023-09-01T09:50:28.310Z,22.34
2023-09-01T09:53:00.376Z,22.36
2023-09-01T09:55:29.707Z,22.41
2023-09-01T09:58:07.463Z,22.41
2023-09-01T10:00:40.642Z,22.49
2023-09-01T10:03:09.926Z,22.48
2023-09-01T10:05:42.586Z,22.50
2023-09-01T10:08:12.261Z,22.53
2023-09-01T10:10:40.695Z,22.59
2023-09-01T10:13:09.664Z,22.59
2023-09-01T10:15:38.788Z,22.59
2023-09-01T10:18:09.465Z,22.61
2023-09-01T10:20:41.892Z,22.65
2023-09-01T10:23:11.039Z,22.69
2023-09-01T10:25:39.295Z,22.73
2023-09-01T10:28:10.229Z,22.80
2023-09-01T10:30:39.554Z,22.76
2023-09-01T10:33:12.274Z,22.80
2023-09-01T10:35:43.771Z,22.81
2023-09-01T10:38:18.603Z,22.82
2023-09-01T10:40:50.122Z,22.86
2023-09-01T10:43:56.792Z,22.89
2023-09-01T10:46:30.950Z,22.95
2023-09-01T10:49:00.195Z,22.92
2023-09-01T10:51:31.670Z,22.93
2023-09-01T10:54:02.316Z,23.01
2023-09-01T10:56:31.860Z,23.03
2023-09-01T10:59:03.646Z,23.05
2023-09-01T11:01:34.199Z,23.10
2023-09-01T11:04:33.376Z,23.09
2023-09-01T11:07:09.476Z,23.10
2023-09-01T11:09:51.586Z,23.08
2023-09-01T11:12:19.944Z,23.10
2023-09-01T11:14:58.785Z,23.12
2023-09-01T11:17:51.292Z,23.20
2023-09-01T11:20:22.350Z,23.20
2023-09-01T11:22:53.222Z,23.28
2023-09-01T11:25:21.244Z,23.32
2023-09-01T11:27:51.899Z,23.29
2023-09-01T11:30:21.598Z,23.35
2023-09-01T11:32:51.302Z,23.33
2023-09-01T11:35:26.466Z,23.32
2023-09-01T11:37:56.509Z,23.36
2023-09-01T11:40:26.770Z,23.49
2023-09-01T11:42:55.092Z,23.42
2023-09-01T11:45:23.377Z,23.45
2023-09-01T11:47:55.233Z,23.47
2023-09-01T11:50:23.769Z,23.49
2023-09-01T11:52:53.672Z,23.52
2023-09-01T11:55:38.234Z,23.50
2023-09-01T11:58:06.893Z,23.50
2023-09-01T12:00:37.090Z,23.51
2023-09-01T12:03:06.516Z,23.55
2023-09-01T12:05:36.473Z,23.53
2023-09-01T12:08:05.813Z,23.53
2023-09-01T12:10:37.104Z,23.55
2023-09-01T12:13:08.492Z,23.62
2023-09-01T12:15:58.759Z,23.64
2023-09-01T12:18:31.737Z,23.66
2023-09-01T12:20:59.979Z,23.65
2023-09-01T12:23:32.454Z,23.71
2023-09-01T12:26:02.543Z,23.71
2023-09-01T12:28:32.203Z,23.74
2023-09-01T12:31:03.637Z,23.73
2023-09-01T12:33:31.865Z,23.75
2023-09-01T12:36:01.272Z,23.73
2023-09-01T12:38:29.442Z,23.73
2023-09-01T12:40:57.992Z,23.72
2023-09-01T12:43:27.431Z,23.66
2023-09-01T12:45:55.716Z,23.71
2023-09-01T12:48:24.171Z,23.71
2023-09-01T12:50:52.635Z,23.70
2023-09-01T12:53:21.150Z,23.70
2023-09-01T12:55:50.092Z,23.73
2023-09-01T12:58:18.181Z,23.70
2023-09-01T13:00:47.774Z,23.71
2023-09-01T13:03:16.071Z,23.69
2023-09-01T13:05:46.599Z,23.72
2023-09-01T13:08:16.680Z,23.74
2023-09-01T13:10:45.701Z,23.76
2023-09-01T13:13:15.830Z,23.75
2023-09-01T13:15:44.588Z,23.77
2023-09-01T13:18:15.964Z,23.80
2023-09-01T13:20:45.404Z,23.79
2023-09-01T13:23:14.966Z,23.79
2023-09-01T13:25:44.945Z,23.80
2023-09-01T13:28:13.580Z,23.81
2023-09-01T13:30:44.250Z,23.79
2023-09-01T13:33:15.536Z,23.82
2023-09-01T13:35:45.216Z,23.77
2023-09-01T13:38:13.319Z,23.78
2023-09-01T13:40:42.784Z,23.74
2023-09-01T13:43:12.093Z,23.69
2023-09-01T13:45:41.348Z,23.70
2023-09-01T13:48:10.063Z,23.68
2023-09-01T13:50:40.631Z,23.71
2023-09-01T13:53:09.233Z,23.73
2023-09-01T13:55:37.774Z,23.75
2023-09-01T13:58:05.782Z,23.76
2023-09-01T14:00:35.019Z,23.78
2023-09-01T14:03:04.451Z,23.77
2023-09-01T14:05:32.989Z,23.75
2023-09-01T14:08:03.245Z,23.73
2023-09-01T14:10:33.111Z,23.73
2023-09-01T14:13:02.543Z,23.74
2023-09-01T14:15:32.289Z,23.72
2023-09-01T14:18:01.777Z,23.65
2023-09-01T14:20:30.305Z,23.64
2023-09-01T14:22:59.581Z,23.64
2023-09-01T14:25:29.034Z,23.70
2023-09-01T14:27:58.781Z,23.71
2023-09-01T14:30:30.106Z,23.72
2023-09-01T14:33:14.218Z,23.74
2023-09-01T14:35:51.763Z,23.76
2023-09-01T14:38:21.972Z,23.75
2023-09-01T14:40:52.745Z,23.75
2023-09-01T14:43:21.351Z,23.75
2023-09-01T14:45:51.236Z,23.72
2023-09-01T14:48:22.197Z,23.73
2023-09-01T14:50:50.712Z,23.72
2023-09-01T14:53:18.796Z,23.68
2023-09-01T14:55:47.596Z,23.68
2023-09-01T14:58:17.480Z,23.67
2023-09-01T15:00:45.638Z,23.64
2023-09-01T15:03:15.171Z,23.67
2023-09-01T15:05:43.585Z,23.64
2023-09-01T15:08:11.562Z,23.62
2023-09-01T15:10:40.842Z,23.63
2023-09-01T15:13:21.114Z,23.63
2023-09-01T15:15:51.156Z,23.62
2023-09-01T15:18:20.942Z,23.71
2023-09-01T15:20:49.466Z,23.71
2023-09-01T15:23:18.581Z,23.65
2023-09-01T15:25:48.523Z,23.62
2023-09-01T15:28:18.160Z,23.61
2023-09-01T15:30:49.149Z,23.63
2023-09-01T15:33:17.939Z,23.62
2023-09-01T15:35:56.115Z,23.65
2023-09-01T15:38:25.396Z,23.65
2023-09-01T15:40:54.302Z,23.64
2023-09-01T15:43:23.414Z,23.64
2023-09-01T15:45:55.640Z,23.61
2023-09-01T15:48:25.472Z,23.61
2023-09-01T15:50:57.419Z,23.61
2023-09-01T15:53:26.539Z,23.61
2023-09-01T15:55:56.298Z,23.58
2023-09-01T15:58:25.319Z,23.57
2023-09-01T16:01:06.710Z,23.56
2023-09-01T16:03:53.487Z,23.57
2023-09-01T16:06:23.880Z,23.54
2023-09-01T16:08:53.579Z,23.54
2023-09-01T16:11:23.246Z,23.55
2023-09-01T16:13:59.783Z,23.53
2023-09-01T16:16:31.923Z,23.52
2023-09-01T16:19:00.442Z,23.51
2023-09-01T16:21:29.060Z,23.48
2023-09-01T16:23:57.988Z,23.50
2023-09-01T16:26:26.493Z,23.45
2023-09-01T16:28:55.328Z,23.43
2023-09-01T16:31:25.339Z,23.41
2023-09-01T16:33:59.722Z,23.40
2023-09-01T16:36:29.645Z,23.42
2023-09-01T16:38:58.890Z,23.42
2023-09-01T16:41:26.917Z,23.40
2023-09-01T16:43:55.995Z,23.39
2023-09-01T16:46:25.256Z,23.39
2023-09-01T16:48:55.928Z,23.35
2023-09-01T16:51:24.945Z,23.35
2023-09-01T16:53:54.880Z,23.34
2023-09-01T16:56:24.560Z,23.36
2023-09-01T16:58:54.201Z,23.34
2023-09-01T17:01:23.107Z,23.33
2023-09-01T17:03:52.389Z,23.33
2023-09-01T17:06:23.134Z,23.33
2023-09-01T17:08:57.124Z,23.35
2023-09-01T17:11:25.325Z,23.36
2023-09-01T17:13:55.116Z,23.38
2023-09-01T17:16:25.036Z,23.39
2023-09-01T17:18:54.004Z,23.40
2023-09-01T17:21:24.878Z,23.41
2023-09-01T17:23:54.695Z,23.41
2023-09-01T17:26:23.820Z,23.40
2023-09-01T17:28:52.692Z,23.39
2023-09-01T17:31:21.961Z,23.40
2023-09-01T17:33:50.552Z,23.40
2023-09-01T17:36:19.235Z,23.41
2023-09-01T17:38:49.186Z,23.42
2023-09-01T17:41:37.335Z,23.40
2023-09-01T17:44:08.174Z,23.40
2023-09-01T17:46:39.554Z,23.39
2023-09-01T17:49:09.409Z,23.41
2023-09-01T17:51:38.814Z,23.41
2023-09-01T17:54:08.556Z,23.41
2023-09-01T17:56:37.412Z,23.41
2023-09-01T17:59:06.025Z,23.41
2023-09-01T18:01:34.658Z,23.40
2023-09-01T18:04:02.788Z,23.39
2023-09-01T18:06:31.977Z,23.39
2023-09-01T18:09:01.327Z,23.38
2023-09-01T18:11:33.864Z,23.37
2023-09-01T18:14:06.074Z,23.36
2023-09-01T18:16:36.510Z,23.36
2023-09-01T18:19:06.327Z,23.34
2023-09-01T18:21:41.001Z,23.37
2023-09-01T18:24:16.094Z,23.32
2023-09-01T18:26:47.594Z,23.31
2023-09-01T18:29:24.394Z,23.30
2023-09-01T18:31:56.244Z,23.29
2023-09-01T18:34:25.702Z,23.32
2023-09-01T18:36:55.910Z,23.28
2023-09-01T18:39:27.350Z,23.23
2023-09-01T18:41:58.050Z,23.22
2023-09-01T18:44:28.339Z,23.33
2023-09-01T18:46:56.872Z,23.27
2023-09-01T18:49:26.983Z,23.22
2023-09-01T18:51:56.083Z,23.16
2023-09-01T18:54:28.726Z,23.20
2023-09-01T18:57:04.573Z,23.20
2023-09-01T18:59:36.370Z,23.25
2023-09-01T19:02:10.349Z,23.15
2023-09-01T19:04:43.803Z,23.22
2023-09-01T19:07:13.871Z,23.21
2023-09-01T19:09:46.597Z,23.21
2023-09-01T19:12:19.627Z,23.22
2023-09-01T19:14:52.994Z,23.21
2023-09-01T19:17:21.979Z,23.12
2023-09-01T19:19:51.989Z,23.07
2023-09-01T19:22:23.281Z,22.96
2023-09-01T19:24:55.832Z,22.97
2023-09-01T19:27:27.108Z,22.96
2023-09-01T19:29:58.509Z,22.96
2023-09-01T19:32:28.391Z,22.88
2023-09-01T19:35:02.402Z,22.86
2023-09-01T19:37:32.497Z,22.84
2023-09-01T19:40:06.201Z,22.88
2023-09-01T19:42:38.543Z,22.94
2023-09-01T19:45:18.516Z,22.98
2023-09-01T19:47:49.701Z,22.85
2023-09-01T19:50:19.579Z,22.93
2023-09-01T19:52:50.864Z,22.78
2023-09-01T19:55:23.008Z,22.78
2023-09-01T19:57:53.964Z,22.70
2023-09-01T20:00:28.666Z,22.65
2023-09-01T20:02:59.443Z,22.73
2023-09-01T20:05:31.228Z,22.66
2023-09-01T20:08:01.241Z,22.56
2023-09-01T20:10:33.957Z,22.55
2023-09-01T20:13:06.171Z,22.62
2023-09-01T20:15:38.787Z,22.63
2023-09-01T20:18:08.580Z,22.53
2023-09-01T20:20:38.771Z,22.56
2023-09-01T20:23:08.718Z,22.57
2023-09-01T20:25:38.874Z,22.63
2023-09-01T20:28:11.543Z,22.42
2023-09-01T20:30:40.640Z,22.37
2023-09-01T20:33:09.820Z,22.35
2023-09-01T20:35:38.711Z,22.34
2023-09-01T20:38:09.476Z,22.36
2023-09-01T20:40:38.986Z,22.42
2023-09-01T20:43:09.756Z,22.35
2023-09-01T20:45:42.039Z,22.33
2023-09-01T20:48:12.414Z,22.33
2023-09-01T20:50:40.876Z,22.41
2023-09-01T20:53:10.714Z,22.37
2023-09-01T20:55:41.121Z,22.43
2023-09-01T20:58:10.989Z,22.44
2023-09-01T21:00:40.594Z,22.38
2023-09-01T21:03:09.046Z,22.35
2023-09-01T21:05:38.142Z,22.41
2023-09-01T21:08:07.358Z,22.36
2023-09-01T21:10:35.376Z,22.30
2023-09-01T21:13:03.335Z,22.28
2023-09-01T21:15:32.780Z,22.32
2023-09-01T21:18:00.796Z,22.30
2023-09-01T21:20:28.779Z,22.24
2023-09-01T21:22:56.767Z,22.18
2023-09-01T21:25:24.687Z,22.18
2023-09-01T21:27:52.661Z,22.23
2023-09-01T21:30:21.437Z,22.22
2023-09-01T21:32:50.991Z,22.29
2023-09-01T21:35:19.169Z,22.04
2023-09-01T21:37:47.159Z,22.04
2023-09-01T21:40:15.275Z,21.98
2023-09-01T21:42:43.293Z,22.05
2023-09-01T21:45:12.088Z,22.02
2023-09-01T21:47:40.064Z,21.96
2023-09-01T21:50:10.445Z,21.90
2023-09-01T21:52:38.631Z,21.88
2023-09-01T21:55:07.520Z,21.89
2023-09-01T21:57:36.210Z,21.83
2023-09-01T22:00:04.830Z,21.90
2023-09-01T22:02:33.116Z,21.90
2023-09-01T22:05:01.243Z,21.83
2023-09-01T22:07:30.683Z,21.79
2023-09-01T22:09:58.912Z,21.82
2023-09-01T22:12:26.905Z,21.66
2023-09-01T22:14:56.816Z,21.61
2023-09-01T22:17:25.157Z,21.62
2023-09-01T22:19:53.515Z,21.67
2023-09-01T22:22:21.508Z,21.60
2023-09-01T22:24:54.581Z,21.61
2023-09-01T22:27:21.590Z,21.52
2023-09-01T22:37:31.371Z,21.38
2023-09-01T22:40:03.508Z,21.43
2023-09-01T22:48:50.256Z,21.43
2023-09-01T22:51:55.488Z,21.38
2023-09-01T22:54:53.701Z,21.40
2023-09-01T22:57:50.848Z,21.44
2023-09-01T23:00:19.745Z,21.46
2023-09-01T23:03:06.616Z,21.34
2023-09-01T23:05:34.737Z,21.40
2023-09-01T23:08:03.034Z,21.37
2023-09-01T23:10:30.917Z,21.38
2023-09-01T23:13:00.315Z,21.33
2023-09-01T23:15:42.969Z,21.40
2023-09-01T23:18:39.339Z,21.39
2023-09-01T23:21:27.446Z,21.31
2023-09-01T23:26:38.800Z,21.29
2023-09-01T23:29:10.096Z,21.39
2023-09-01T23:31:52.774Z,21.34
2023-09-01T23:34:51.356Z,21.21
2023-09-01T23:37:19.652Z,21.20
2023-09-01T23:43:06.238Z,21.17
2023-09-01T23:45:43.906Z,21.02
2023-09-01T23:48:11.949Z,21.04
2023-09-01T23:50:39.938Z,21.06
2023-09-01T23:53:07.964Z,21.05
2023-09-01T23:55:35.919Z,21.00
2023-09-01T23:58:04.301Z,20.98
